Airfield :
LOGIN :

Register | Disclaimer

   EN    FR    IT 

 










Legend :    VFR   Marginal VFR   IFR   Intensive IFR   Very Intensive IFR
Visi :
Ceiling :
>= 8 km
>= 3000ft
5 to 8 km
1000 to 3000 ft
1500m to 5 km
500 to 1000 ft
800 to 1500m
200 to 500 ft
< 800m
< 200 ft
Symbols :   Thunderstorms  Fog  Heavy snow  Heavy precipitations  Wind > 20 kt
SIGMETs :     Misc.  Thunderstorms  Icing  Turbulence  Mountain Waves  Volcanic Ashes







- Airport Elevation : 50 ft
- IATA code : KOI
- Download approach charts


EGPA - Kirkwall

CURRENT METAR :
  • 191650Z 28006KT 9999 FEW038 14/09 Q1016

EXPIRED METARs :
  • 191620Z 26005KT 9999 FEW035 15/09 Q1016
  • 191550Z 26005KT 9999 FEW035 15/09 Q1016
  • 191520Z 25004KT 220V300 9999 FEW038 15/09 Q1016
  • 191450Z 31005KT 270V340 9999 FEW038 16/09 Q1016
  • 191420Z 28010KT 9999 FEW022 SCT038 14/09 Q1017

TAF TAF EGPA
Valid from the 19 at 15:00 until the 20 at 00:00 UTC


191359Z 1915/1924 31007KT 9999 FEW025
No reported NOTAMs for that airfield.



MET'MAP, your aeronautical weather chart ! - Copyright ORBIFLY December 2007 - Disclaimer

ORBIFLY MET'MAP TEAM :

Programming & Development : Alexandra Zaïnal
Concept & Development : Baudouin d'Aumeries
Co-Development & Prog : Marc-Olivier Méhu
Technical & hardware support : Manuel Goepfert

Contact : metmap@orbifly.com




SOURCES & CREDITS :

   NOAA